createdAt,value
2023-01-08T00:02:32.484Z,100900.59
2023-01-08T00:05:55.514Z,100910.31
2023-01-08T00:09:11.690Z,100908.41
2023-01-08T00:12:32.480Z,100906.94
2023-01-08T00:15:54.515Z,100906.50
2023-01-08T00:19:19.543Z,100908.97
2023-01-08T00:22:46.535Z,100901.94
2023-01-08T00:26:06.367Z,100895.97
2023-01-08T00:29:22.623Z,100898.13
2023-01-08T00:32:48.672Z,100888.94
2023-01-08T00:36:14.633Z,100886.25
2023-01-08T00:39:28.757Z,100875.72
2023-01-08T00:42:51.373Z,100873.31
2023-01-08T00:46:16.513Z,100876.00
2023-01-08T00:49:36.437Z,100877.63
2023-01-08T00:52:56.297Z,100874.41
2023-01-08T00:56:19.381Z,100878.72
2023-01-08T00:59:39.446Z,100869.84
2023-01-08T01:02:47.527Z,100880.06
2023-01-08T01:06:03.459Z,100879.81
2023-01-08T01:09:12.462Z,100886.81
2023-01-08T01:12:34.106Z,100883.63
2023-01-08T01:15:58.062Z,100880.66
2023-01-08T01:19:18.168Z,100887.94
2023-01-08T01:22:42.354Z,100882.25
2023-01-08T01:26:08.940Z,100884.19
2023-01-08T01:29:29.355Z,100879.25
2023-01-08T01:32:43.110Z,100876.59
2023-01-08T01:36:24.395Z,100873.28
2023-01-08T01:39:54.139Z,100871.63
2023-01-08T01:43:10.970Z,100866.44
2023-01-08T01:50:58.664Z,100848.47
2023-01-08T01:54:33.435Z,100835.28
2023-01-08T01:59:07.052Z,100833.94
2023-01-08T02:02:28.612Z,100819.75
2023-01-08T02:06:28.245Z,100816.53
2023-01-08T02:10:11.531Z,100810.84
2023-01-08T02:13:25.707Z,100811.88
2023-01-08T02:16:43.180Z,100816.31
2023-01-08T02:20:08.958Z,100816.34
2023-01-08T02:23:34.308Z,100821.03
2023-01-08T02:26:58.716Z,100815.34
2023-01-08T02:30:13.412Z,100807.22
2023-01-08T02:33:31.373Z,100798.81
2023-01-08T02:37:03.264Z,100800.94
2023-01-08T02:40:44.412Z,100810.19
2023-01-08T02:44:20.051Z,100799.31
2023-01-08T02:47:55.883Z,100797.19
2023-01-08T02:51:25.492Z,100795.09
2023-01-08T02:54:52.647Z,100794.81
2023-01-08T02:58:01.138Z,100796.06
2023-01-08T03:01:32.517Z,100783.50
2023-01-08T03:04:58.788Z,100785.66
2023-01-08T03:08:10.904Z,100783.50
2023-01-08T03:11:28.655Z,100781.06
2023-01-08T03:14:51.931Z,100771.34
2023-01-08T03:18:13.883Z,100765.19
2023-01-08T03:21:37.733Z,100768.69
2023-01-08T03:24:59.843Z,100766.84
2023-01-08T03:28:22.332Z,100766.88
2023-01-08T03:31:42.891Z,100780.63
2023-01-08T03:35:09.919Z,100772.72
2023-01-08T03:38:47.081Z,100768.09
2023-01-08T03:41:52.096Z,100757.97
2023-01-08T03:45:15.749Z,100756.72
2023-01-08T03:48:35.363Z,100749.75
2023-01-08T03:51:53.901Z,100741.06
2023-01-08T03:55:27.504Z,100731.53
2023-01-08T03:58:50.869Z,100741.78
2023-01-08T04:02:10.473Z,100747.69
2023-01-08T04:05:29.403Z,100742.31
2023-01-08T04:08:45.909Z,100741.25
2023-01-08T04:12:12.836Z,100738.06
2023-01-08T04:15:34.701Z,100737.53
2023-01-08T04:18:57.747Z,100742.06
2023-01-08T04:22:21.976Z,100745.91
2023-01-08T04:25:38.674Z,100742.44
2023-01-08T04:29:03.789Z,100737.84
2023-01-08T04:32:26.761Z,100734.28
2023-01-08T04:35:46.254Z,100744.28
2023-01-08T04:39:10.744Z,100731.28
2023-01-08T04:42:30.893Z,100738.06
2023-01-08T04:45:37.199Z,100735.38
2023-01-08T04:48:40.919Z,100747.28
2023-01-08T04:51:50.480Z,100747.88
2023-01-08T04:55:07.180Z,100752.66
2023-01-08T04:58:21.026Z,100751.59
2023-01-08T05:01:37.082Z,100752.22
2023-01-08T05:05:06.121Z,100757.13
2023-01-08T05:08:42.338Z,100749.31
2023-01-08T05:12:06.611Z,100739.19
2023-01-08T05:15:28.355Z,100740.00
2023-01-08T05:19:06.859Z,100738.09
2023-01-08T05:22:17.469Z,100725.88
2023-01-08T05:25:37.653Z,100732.41
2023-01-08T05:28:48.515Z,100727.56
2023-01-08T05:32:01.292Z,100718.97
2023-01-08T05:35:36.589Z,100721.22
2023-01-08T05:39:05.419Z,100721.44
2023-01-08T05:42:21.922Z,100725.16
2023-01-08T05:45:41.726Z,100726.75
2023-01-08T05:49:04.517Z,100707.81
2023-01-08T05:52:17.584Z,100708.06
2023-01-08T05:55:39.344Z,100706.19
2023-01-08T05:58:43.818Z,100711.69
2023-01-08T06:01:57.450Z,100709.22
2023-01-08T06:05:01.826Z,100702.22
2023-01-08T06:08:09.978Z,100700.13
2023-01-08T06:11:17.141Z,100700.41
2023-01-08T06:14:39.847Z,100697.97
2023-01-08T06:17:54.605Z,100693.88
2023-01-08T06:21:24.171Z,100699.31
2023-01-08T06:24:35.355Z,100696.34
2023-01-08T06:27:58.676Z,100694.75
2023-01-08T06:31:11.734Z,100690.41
2023-01-08T06:34:23.299Z,100677.44
2023-01-08T06:37:27.415Z,100682.56
2023-01-08T06:40:39.136Z,100684.13
2023-01-08T06:43:42.264Z,100684.41
2023-01-08T06:46:46.782Z,100687.31
2023-01-08T06:49:59.571Z,100684.53
2023-01-08T06:53:05.868Z,100693.63
2023-01-08T06:56:25.444Z,100695.91
2023-01-08T07:00:03.547Z,100692.66
2023-01-08T07:03:24.607Z,100689.97
2023-01-08T07:06:40.971Z,100691.63
2023-01-08T07:10:09.529Z,100688.09
2023-01-08T07:13:26.808Z,100692.94
2023-01-08T07:16:44.257Z,100702.31
2023-01-08T07:20:07.621Z,100692.94
2023-01-08T07:23:29.935Z,100690.78
2023-01-08T07:26:50.500Z,100701.19
2023-01-08T07:29:56.205Z,100694.53
2023-01-08T07:33:04.260Z,100694.44
2023-01-08T07:36:22.702Z,100696.09
2023-01-08T07:39:32.331Z,100680.72
2023-01-08T07:42:55.357Z,100687.25
2023-01-08T07:46:26.298Z,100683.19
2023-01-08T07:49:52.306Z,100688.38
2023-01-08T07:53:04.901Z,100680.84
2023-01-08T07:56:27.314Z,100683.34
2023-01-08T07:59:51.465Z,100673.84
2023-01-08T08:03:18.214Z,100675.97
2023-01-08T08:06:43.197Z,100676.28
2023-01-08T08:10:04.143Z,100675.97
2023-01-08T08:13:14.257Z,100674.38
2023-01-08T08:16:18.418Z,100667.16
2023-01-08T08:19:22.090Z,100661.69
2023-01-08T08:22:45.193Z,100659.97
2023-01-08T08:26:01.317Z,100648.47
2023-01-08T08:29:13.165Z,100650.91
2023-01-08T08:32:43.281Z,100639.31
2023-01-08T08:36:19.404Z,100645.22
2023-01-08T08:39:36.653Z,100637.66
2023-01-08T08:43:01.082Z,100629.31
2023-01-08T08:46:37.264Z,100631.22
2023-01-08T08:49:46.831Z,100633.13
2023-01-08T08:53:03.798Z,100632.91
2023-01-08T08:56:27.059Z,100643.16
2023-01-08T09:00:00.959Z,100635.34
2023-01-08T09:03:15.066Z,100634.53
2023-01-08T09:06:18.152Z,100638.03
2023-01-08T09:09:22.110Z,100640.19
2023-01-08T09:12:33.237Z,100626.97
2023-01-08T09:15:46.020Z,100627.50
2023-01-08T09:19:10.213Z,100621.78
2023-01-08T09:22:15.347Z,100631.22
2023-01-08T09:25:19.495Z,100624.19
2023-01-08T09:28:30.892Z,100623.41
2023-01-08T09:31:35.084Z,100618.00
2023-01-08T09:34:42.346Z,100612.94
2023-01-08T09:37:56.497Z,100606.22
2023-01-08T09:41:25.909Z,100612.69
2023-01-08T09:44:43.485Z,100597.03
2023-01-08T09:47:46.673Z,100595.97
2023-01-08T09:51:03.329Z,100590.03
2023-01-08T09:54:10.077Z,100574.94
2023-01-08T09:57:19.639Z,100565.50
2023-01-08T10:00:34.146Z,100568.47
2023-01-08T10:03:52.117Z,100554.72
2023-01-08T10:07:22.792Z,100546.91
2023-01-08T10:10:39.185Z,100537.72
2023-01-08T10:14:00.983Z,100536.38
2023-01-08T10:17:44.337Z,100519.34
2023-01-08T10:20:54.649Z,100530.94
2023-01-08T10:24:13.153Z,100525.53
2023-01-08T10:27:37.867Z,100522.59
2023-01-08T10:30:55.815Z,100509.09
2023-01-08T10:34:18.842Z,100506.09
2023-01-08T10:37:46.946Z,100506.84
2023-01-08T10:40:51.073Z,100508.47
2023-01-08T10:44:07.749Z,100497.88
2023-01-08T10:47:18.747Z,100482.69
2023-01-08T10:50:32.543Z,100485.16
2023-01-08T10:53:43.960Z,100479.22
2023-01-08T10:57:02.377Z,100473.94
2023-01-08T11:00:29.463Z,100478.13
2023-01-08T11:03:56.039Z,100473.41
2023-01-08T11:07:12.642Z,100472.13
2023-01-08T11:10:31.898Z,100462.75
2023-01-08T11:14:01.436Z,100454.09
2023-01-08T11:17:26.644Z,100442.22
2023-01-08T11:20:48.358Z,100436.91
2023-01-08T11:24:30.477Z,100431.25
2023-01-08T11:28:00.799Z,100424.72
2023-01-08T11:31:52.152Z,100408.91
2023-01-08T11:35:04.795Z,100405.13
2023-01-08T11:38:29.046Z,100392.22
2023-01-08T11:45:40.811Z,100386.28
2023-01-08T11:49:06.372Z,100389.66
2023-01-08T11:52:21.547Z,100377.22
2023-01-08T11:55:42.622Z,100380.13
2023-01-08T11:59:08.263Z,100369.41
2023-01-08T12:03:04.264Z,100373.38
2023-01-08T12:06:51.906Z,100362.34
2023-01-08T12:10:33.965Z,100361.47
2023-01-08T12:14:28.395Z,100366.00
2023-01-08T12:18:15.921Z,100355.72
2023-01-08T12:21:51.847Z,100360.50
2023-01-08T12:25:23.419Z,100360.84
2023-01-08T12:28:55.217Z,100358.50
2023-01-08T12:32:20.955Z,100354.91
2023-01-08T12:36:04.294Z,100356.13
2023-01-08T12:39:30.635Z,100349.97
2023-01-08T12:42:47.213Z,100355.69
2023-01-08T12:46:02.600Z,100352.19
2023-01-08T12:49:37.579Z,100351.16
2023-01-08T12:53:19.392Z,100351.75
2023-01-08T12:56:53.563Z,100339.00
2023-01-08T13:03:46.285Z,100345.94
2023-01-08T13:07:18.907Z,100340.63
2023-01-08T13:10:36.082Z,100336.16
2023-01-08T13:13:45.577Z,100333.94
2023-01-08T13:17:21.724Z,100339.09
2023-01-08T13:20:38.821Z,100329.00
2023-01-08T13:24:25.259Z,100336.97
2023-01-08T13:27:30.145Z,100328.88
2023-01-08T13:30:43.480Z,100330.97
2023-01-08T13:33:57.676Z,100326.50
2023-01-08T13:37:27.367Z,100330.00
2023-01-08T13:40:44.165Z,100342.41
2023-01-08T13:44:26.763Z,100332.69
2023-01-08T13:47:49.951Z,100324.16
2023-01-08T13:50:56.134Z,100316.78
2023-01-08T13:54:16.297Z,100310.38
2023-01-08T13:57:26.079Z,100320.75
2023-01-08T14:01:01.119Z,100317.00
2023-01-08T14:04:27.534Z,100325.19
2023-01-08T14:07:50.812Z,100335.19
2023-01-08T14:10:58.415Z,100327.59
2023-01-08T14:14:17.492Z,100320.13
2023-01-08T14:17:36.569Z,100324.06
2023-01-08T14:20:43.701Z,100320.22
2023-01-08T14:23:50.350Z,100329.78
2023-01-08T14:26:54.923Z,100328.22
2023-01-08T14:29:58.925Z,100327.78
2023-01-08T14:33:44.453Z,100325.47
2023-01-08T14:37:11.125Z,100339.59
2023-01-08T14:40:36.346Z,100325.53
2023-01-08T14:44:00.140Z,100327.19
2023-01-08T14:47:41.619Z,100317.19
2023-01-08T14:51:07.971Z,100326.97
2023-01-08T14:54:23.394Z,100314.00
2023-01-08T14:57:29.338Z,100316.63
2023-01-08T15:00:45.299Z,100318.56
2023-01-08T15:04:13.422Z,100317.22
2023-01-08T15:07:29.108Z,100300.03
2023-01-08T15:10:49.339Z,100308.81
2023-01-08T15:14:20.299Z,100311.03
2023-01-08T15:17:42.329Z,100300.97
2023-01-08T15:20:52.667Z,100305.28
2023-01-08T15:24:01.445Z,100297.22
2023-01-08T15:27:34.133Z,100300.41
2023-01-08T15:31:13.717Z,100292.59
2023-01-08T15:34:25.015Z,100303.41
2023-01-08T15:37:48.183Z,100289.88
2023-01-08T15:41:39.270Z,100295.00
2023-01-08T15:44:54.198Z,100278.84
2023-01-08T15:47:57.366Z,100277.47
2023-01-08T15:51:22.813Z,100280.69
2023-01-08T15:54:42.355Z,100270.63
2023-01-08T15:57:53.318Z,100264.84
2023-01-08T16:01:04.442Z,100266.72
2023-01-08T16:04:15.273Z,100269.59
2023-01-08T16:07:29.772Z,100272.44
2023-01-08T16:10:33.740Z,100271.19
2023-01-08T16:17:39.764Z,100264.38
2023-01-08T16:21:00.513Z,100262.59
2023-01-08T16:24:05.098Z,100259.72
2023-01-08T16:27:27.972Z,100256.38
2023-01-08T16:31:05.027Z,100245.84
2023-01-08T16:34:18.901Z,100249.38
2023-01-08T16:38:10.831Z,100249.94
2023-01-08T16:41:35.679Z,100253.00
2023-01-08T16:44:47.067Z,100251.38
2023-01-08T16:48:08.248Z,100241.75
2023-01-08T16:51:28.840Z,100244.53
2023-01-08T16:54:41.730Z,100247.63
2023-01-08T16:58:04.856Z,100246.50
2023-01-08T17:01:33.947Z,100239.94
2023-01-08T17:04:55.866Z,100238.81
2023-01-08T17:08:17.001Z,100231.56
2023-01-08T17:11:34.820Z,100230.75
2023-01-08T17:14:44.874Z,100231.38
2023-01-08T17:18:12.896Z,100229.34
2023-01-08T17:21:42.860Z,100230.38
2023-01-08T17:25:08.040Z,100231.00
2023-01-08T17:28:32.736Z,100226.31
2023-01-08T17:31:53.799Z,100227.25
2023-01-08T17:35:12.777Z,100221.25
2023-01-08T17:38:36.112Z,100216.31
2023-01-08T17:42:14.843Z,100207.09
2023-01-08T17:45:19.307Z,100214.06
2023-01-08T17:48:43.890Z,100216.66
2023-01-08T17:52:05.807Z,100210.50
2023-01-08T17:55:15.754Z,100212.34
2023-01-08T17:58:38.950Z,100202.97
2023-01-08T18:02:14.966Z,100215.34
2023-01-08T18:05:30.077Z,100207.50
2023-01-08T18:08:47.973Z,100208.66
2023-01-08T18:12:19.907Z,100209.41
2023-01-08T18:15:27.887Z,100207.81
2023-01-08T18:18:38.860Z,100213.94
2023-01-08T18:21:53.621Z,100210.59
2023-01-08T18:25:01.071Z,100213.78
2023-01-08T18:28:22.286Z,100204.59
2023-01-08T18:31:45.882Z,100204.22
2023-01-08T18:35:09.611Z,100211.03
2023-01-08T18:38:23.553Z,100211.75
2023-01-08T18:42:29.021Z,100212.44
2023-01-08T18:45:49.160Z,100201.34
2023-01-08T18:49:02.886Z,100208.41
2023-01-08T18:52:16.957Z,100204.25
2023-01-08T18:55:25.420Z,100206.06
2023-01-08T18:58:46.421Z,100203.06
2023-01-08T19:02:03.630Z,100209.38
2023-01-08T19:05:25.397Z,100200.31
2023-01-08T19:08:47.446Z,100204.28
2023-01-08T19:12:03.834Z,100195.34
2023-01-08T19:15:32.476Z,100200.19
2023-01-08T19:18:57.804Z,100197.16
2023-01-08T19:22:34.559Z,100192.69
2023-01-08T19:25:42.546Z,100198.31
2023-01-08T19:29:04.177Z,100186.13
2023-01-08T19:32:26.699Z,100185.69
2023-01-08T19:35:44.870Z,100190.28
2023-01-08T19:39:07.860Z,100184.81
2023-01-08T19:42:34.459Z,100182.47
2023-01-08T19:45:43.599Z,100178.97
2023-01-08T19:49:13.620Z,100176.47
2023-01-08T19:52:41.513Z,100181.09
2023-01-08T19:56:04.636Z,100179.91
2023-01-08T19:59:23.577Z,100173.56
2023-01-08T20:02:53.466Z,100167.78
2023-01-08T20:06:19.986Z,100166.41
2023-01-08T20:09:33.541Z,100163.19
2023-01-08T20:12:48.763Z,100166.47
2023-01-08T20:16:11.888Z,100157.19
2023-01-08T20:19:38.381Z,100155.34
2023-01-08T20:22:58.641Z,100150.47
2023-01-08T20:26:23.539Z,100156.38
2023-01-08T20:29:39.619Z,100147.38
2023-01-08T20:33:03.395Z,100150.31
2023-01-08T20:36:39.776Z,100149.78
2023-01-08T20:39:47.923Z,100151.41
2023-01-08T20:43:05.419Z,100144.56
2023-01-08T20:46:32.600Z,100135.66
2023-01-08T20:49:48.019Z,100134.25
2023-01-08T20:53:11.501Z,100131.03
2023-01-08T20:56:26.581Z,100129.63
2023-01-08T20:59:30.786Z,100130.34
2023-01-08T21:02:44.122Z,100122.34
2023-01-08T21:06:06.081Z,100126.22
2023-01-08T21:09:29.099Z,100118.00
2023-01-08T21:12:47.073Z,100112.47
2023-01-08T21:15:50.261Z,100121.00
2023-01-08T21:19:28.259Z,100118.59
2023-01-08T21:22:54.164Z,100113.81
2023-01-08T21:26:23.695Z,100112.25
2023-01-08T21:29:31.242Z,100107.66
2023-01-08T21:32:38.474Z,100099.47
2023-01-08T21:35:44.422Z,100109.78
2023-01-08T21:38:58.777Z,100104.72
2023-01-08T21:42:21.995Z,100105.91
2023-01-08T21:46:02.955Z,100104.19
2023-01-08T21:49:16.934Z,100097.41
2023-01-08T21:52:41.213Z,100090.66
2023-01-08T21:55:52.224Z,100089.66
2023-01-08T21:59:15.340Z,100090.81
2023-01-08T22:02:33.081Z,100087.25
2023-01-08T22:06:16.136Z,100075.53
2023-01-08T22:09:53.261Z,100074.06
2023-01-08T22:13:30.330Z,100075.97
2023-01-08T22:16:53.115Z,100071.38
2023-01-08T22:20:10.140Z,100083.78
2023-01-08T22:23:33.169Z,100076.47
2023-01-08T22:26:58.334Z,100068.09
2023-01-08T22:30:14.282Z,100068.75
2023-01-08T22:33:38.244Z,100069.19
2023-01-08T22:37:26.318Z,100061.59
2023-01-08T22:40:31.002Z,100055.66
2023-01-08T22:43:44.255Z,100051.78
2023-01-08T22:46:47.262Z,100052.16
2023-01-08T22:49:53.753Z,100046.38
2023-01-08T22:53:11.003Z,100036.81
2023-01-08T22:56:23.851Z,100032.44
2023-01-08T22:59:44.514Z,100027.59
2023-01-08T23:03:11.115Z,100023.00
2023-01-08T23:10:22.970Z,100007.19
2023-01-08T23:13:30.238Z,100004.44
2023-01-08T23:16:53.063Z,100009.25
2023-01-08T23:20:20.204Z,100008.97
2023-01-08T23:23:39.978Z,100004.38
2023-01-08T23:27:05.810Z,100001.78
2023-01-08T23:30:19.953Z,99995.06
2023-01-08T23:33:39.094Z,100000.41
2023-01-08T23:36:53.960Z,100001.34
2023-01-08T23:40:20.964Z,99991.50
2023-01-08T23:43:54.031Z,99993.19
2023-01-08T23:47:03.376Z,99988.81
2023-01-08T23:50:23.087Z,99986.31
2023-01-08T23:53:58.302Z,99982.50
2023-01-08T23:57:18.816Z,99980.81
